createdAt,value
2022-08-05T00:00:17.891Z,9.45
2022-08-05T00:02:50.845Z,12.15
2022-08-05T00:06:03.201Z,5.05
2022-08-05T00:08:19.787Z,4.00
2022-08-05T00:10:53.643Z,4.85
2022-08-05T00:13:20.523Z,3.72
2022-08-05T00:16:08.653Z,4.57
2022-08-05T00:18:36.572Z,5.45
2022-08-05T00:21:06.957Z,7.97
2022-08-05T00:23:45.700Z,3.17
2022-08-05T00:26:16.351Z,10.88
2022-08-05T00:28:45.720Z,6.13
2022-08-05T00:31:13.707Z,4.63
2022-08-05T00:34:56.994Z,5.35
2022-08-05T00:37:11.000Z,4.55
2022-08-05T00:39:18.057Z,6.05
2022-08-05T00:41:55.328Z,3.00
2022-08-05T00:44:30.975Z,5.90
2022-08-05T00:47:02.209Z,4.47
2022-08-05T00:49:51.020Z,9.82
2022-08-05T00:52:28.117Z,9.80
2022-08-05T00:54:56.239Z,4.18
2022-08-05T00:57:25.444Z,6.38
2022-08-05T00:59:58.799Z,2.67
2022-08-05T01:02:25.783Z,6.25
2022-08-05T01:04:52.709Z,5.78
2022-08-05T01:07:19.596Z,5.50
2022-08-05T01:09:46.612Z,4.53
2022-08-05T01:12:25.154Z,6.80
2022-08-05T01:15:35.605Z,7.93
2022-08-05T01:18:10.092Z,8.88
2022-08-05T01:21:03.975Z,6.03
2022-08-05T01:24:13.260Z,3.60
2022-08-05T01:26:59.575Z,9.05
2022-08-05T01:29:37.247Z,5.85
2022-08-05T01:32:12.506Z,8.60
2022-08-05T01:34:54.665Z,3.88
2022-08-05T01:37:44.210Z,6.40
2022-08-05T01:40:12.761Z,5.43
2022-08-05T01:42:42.843Z,5.40
2022-08-05T01:45:10.717Z,9.77
2022-08-05T01:47:43.494Z,4.65
2022-08-05T01:50:28.539Z,7.25
2022-08-05T01:53:02.777Z,6.15
2022-08-05T01:55:36.337Z,3.88
2022-08-05T01:58:10.983Z,6.80
2022-08-05T02:00:56.516Z,4.22
2022-08-05T02:06:33.927Z,5.38
2022-08-05T02:08:58.549Z,4.13
2022-08-05T02:11:33.169Z,3.85
2022-08-05T02:14:15.610Z,6.63
2022-08-05T02:16:52.237Z,8.13
2022-08-05T02:19:28.644Z,4.55
2022-08-05T02:22:49.477Z,5.40
2022-08-05T02:25:33.285Z,6.38
2022-08-05T02:28:02.484Z,4.95
2022-08-05T02:30:54.598Z,4.30
2022-08-05T02:33:24.599Z,3.55
2022-08-05T02:38:35.395Z,5.32
2022-08-05T02:41:14.617Z,3.63
2022-08-05T02:44:02.460Z,4.25
2022-08-05T02:46:35.991Z,10.27
2022-08-05T02:49:21.964Z,3.50
2022-08-05T02:52:03.896Z,4.43
2022-08-05T02:54:35.727Z,4.97
2022-08-05T02:57:10.224Z,6.65
2022-08-05T02:59:56.271Z,7.55
2022-08-05T03:02:28.545Z,2.40
2022-08-05T03:04:57.896Z,4.90
2022-08-05T03:08:00.175Z,4.40
2022-08-05T03:10:21.983Z,7.38
2022-08-05T03:12:53.171Z,4.45
2022-08-05T03:15:20.791Z,6.40
2022-08-05T03:17:48.641Z,4.50
2022-08-05T03:20:21.373Z,6.55
2022-08-05T03:22:50.692Z,7.68
2022-08-05T03:25:32.511Z,2.80
2022-08-05T03:28:03.129Z,5.80
2022-08-05T03:30:34.772Z,5.20
2022-08-05T03:33:06.188Z,7.97
2022-08-05T03:35:41.628Z,5.88
2022-08-05T03:38:11.963Z,2.63
2022-08-05T03:40:47.204Z,4.20
2022-08-05T03:43:58.761Z,3.92
2022-08-05T03:46:03.230Z,5.80
2022-08-05T03:48:30.796Z,3.10
2022-08-05T03:52:36.872Z,6.63
2022-08-05T03:55:54.022Z,4.63
2022-08-05T03:56:49.981Z,4.88
2022-08-05T03:59:54.523Z,9.93
2022-08-05T04:02:37.503Z,4.28
2022-08-05T04:05:09.804Z,4.13
2022-08-05T04:07:57.152Z,4.38
2022-08-05T04:10:30.010Z,4.30
2022-08-05T04:13:03.445Z,4.80
2022-08-05T04:15:33.355Z,4.38
2022-08-05T04:18:07.910Z,5.32
2022-08-05T04:20:37.490Z,3.03
2022-08-05T04:23:04.567Z,6.97
2022-08-05T04:25:57.425Z,5.30
2022-08-05T04:28:20.314Z,5.22
2022-08-05T04:30:58.119Z,6.82
2022-08-05T04:33:54.547Z,4.13
2022-08-05T04:36:38.569Z,6.10
2022-08-05T04:39:02.518Z,3.17
2022-08-05T04:41:37.100Z,6.00
2022-08-05T04:44:09.266Z,8.55
2022-08-05T04:46:37.639Z,6.03
2022-08-05T04:49:12.324Z,4.50
2022-08-05T04:51:43.170Z,7.70
2022-08-05T04:54:10.676Z,6.47
2022-08-05T04:56:39.421Z,5.07
2022-08-05T04:59:21.979Z,7.05
2022-08-05T05:02:35.340Z,4.30
2022-08-05T05:04:47.563Z,5.38
2022-08-05T05:07:17.822Z,5.07
2022-08-05T05:09:45.802Z,8.43
2022-08-05T05:12:12.712Z,5.68
2022-08-05T05:14:49.326Z,6.47
2022-08-05T05:17:23.403Z,6.65
2022-08-05T05:19:53.662Z,13.52
2022-08-05T05:22:24.411Z,7.80
2022-08-05T05:25:01.223Z,9.10
2022-08-05T05:27:41.273Z,13.10
2022-08-05T05:30:30.791Z,5.28
2022-08-05T05:33:17.027Z,10.10
2022-08-05T05:35:48.277Z,9.15
2022-08-05T05:38:22.889Z,8.50
2022-08-05T05:40:58.311Z,16.23
2022-08-05T05:43:57.524Z,7.90
2022-08-05T05:46:15.759Z,18.65
2022-08-05T05:48:44.668Z,10.25
2022-08-05T05:51:19.268Z,12.27
2022-08-05T05:53:57.167Z,7.35
2022-08-05T05:56:32.764Z,9.00
2022-08-05T05:59:06.545Z,7.05
2022-08-05T06:01:39.807Z,5.13
2022-08-05T06:04:12.727Z,13.93
2022-08-05T06:06:47.716Z,7.18
2022-08-05T06:09:16.729Z,8.13
2022-08-05T06:12:01.456Z,5.28
2022-08-05T06:14:30.720Z,21.35
2022-08-05T06:16:58.392Z,8.05
2022-08-05T06:19:34.822Z,7.72
2022-08-05T06:22:04.265Z,10.55
2022-08-05T06:24:34.754Z,9.75
2022-08-05T06:27:02.200Z,10.90
2022-08-05T06:29:49.455Z,8.77
2022-08-05T06:32:26.386Z,7.25
2022-08-05T06:34:58.668Z,5.22
2022-08-05T06:37:57.055Z,7.68
2022-08-05T06:40:20.679Z,12.10
2022-08-05T06:42:52.730Z,6.47
2022-08-05T06:45:44.862Z,6.00
2022-08-05T06:48:44.223Z,7.47
2022-08-05T06:50:55.774Z,13.02
2022-08-05T06:53:27.726Z,7.18
2022-08-05T06:55:59.068Z,11.70
2022-08-05T06:58:35.033Z,9.70
2022-08-05T07:01:05.800Z,10.32
2022-08-05T07:03:33.531Z,7.78
2022-08-05T07:06:06.234Z,8.07
2022-08-05T07:08:47.233Z,18.30
2022-08-05T07:11:16.088Z,8.30
2022-08-05T07:14:02.557Z,7.35
2022-08-05T07:18:02.351Z,12.40
2022-08-05T07:20:23.019Z,6.53
2022-08-05T07:22:29.064Z,7.18
2022-08-05T07:25:22.394Z,7.00
2022-08-05T07:27:58.469Z,12.30
2022-08-05T07:30:34.494Z,7.93
2022-08-05T07:33:09.910Z,7.65
2022-08-05T07:36:02.515Z,12.65
2022-08-05T07:38:33.428Z,9.63
2022-08-05T07:42:06.892Z,5.03
2022-08-05T07:43:58.198Z,11.77
2022-08-05T07:46:28.077Z,10.38
2022-08-05T07:49:01.517Z,7.45
2022-08-05T07:51:48.787Z,9.70
2022-08-05T07:54:31.267Z,9.55
2022-08-05T07:57:22.456Z,7.60
2022-08-05T07:59:51.633Z,5.90
2022-08-05T08:02:18.620Z,8.38
2022-08-05T08:04:46.670Z,5.70
2022-08-05T08:07:15.038Z,11.35
2022-08-05T08:09:42.477Z,13.50
2022-08-05T08:12:30.597Z,5.32
2022-08-05T08:14:56.891Z,16.15
2022-08-05T08:17:29.281Z,6.63
2022-08-05T08:20:22.390Z,4.28
2022-08-05T08:22:44.504Z,6.57
2022-08-05T08:25:15.635Z,11.25
2022-08-05T08:27:47.528Z,11.30
2022-08-05T08:30:29.992Z,6.95
2022-08-05T08:33:04.814Z,11.45
2022-08-05T08:35:41.540Z,7.93
2022-08-05T08:38:35.858Z,5.07
2022-08-05T08:41:14.015Z,7.93
2022-08-05T08:45:23.924Z,5.20
2022-08-05T08:46:31.181Z,7.93
2022-08-05T08:49:08.338Z,10.65
2022-08-05T08:52:14.322Z,4.45
2022-08-05T08:54:43.068Z,8.77
2022-08-05T08:57:13.389Z,23.15
2022-08-05T08:59:41.797Z,8.70
2022-08-05T09:02:16.694Z,7.93
2022-08-05T09:04:57.783Z,10.43
2022-08-05T09:07:40.147Z,5.55
2022-08-05T09:10:20.865Z,8.15
2022-08-05T09:12:54.364Z,12.55
2022-08-05T09:15:23.651Z,10.52
2022-08-05T09:17:53.082Z,20.33
2022-08-05T09:20:36.458Z,10.25
2022-08-05T09:23:09.538Z,13.52
2022-08-05T09:26:00.307Z,8.63
2022-08-05T09:28:32.296Z,13.10
2022-08-05T09:31:44.124Z,8.30
2022-08-05T09:34:05.087Z,7.45
2022-08-05T09:36:59.434Z,9.85
2022-08-05T09:39:41.324Z,18.02
2022-08-05T09:42:23.931Z,14.73
2022-08-05T09:44:56.588Z,5.05
2022-08-05T09:47:34.948Z,5.80
2022-08-05T09:50:18.276Z,6.97
2022-08-05T09:53:01.176Z,8.45
2022-08-05T09:55:56.142Z,7.22
2022-08-05T09:58:22.211Z,10.90
2022-08-05T10:00:56.170Z,12.23
2022-08-05T10:03:24.902Z,5.13
2022-08-05T10:06:14.643Z,6.22
2022-08-05T10:08:54.040Z,8.02
2022-08-05T10:11:22.959Z,7.80
2022-08-05T10:13:49.944Z,7.47
2022-08-05T10:16:32.298Z,9.68
2022-08-05T10:19:01.818Z,6.85
2022-08-05T10:21:41.056Z,8.52
2022-08-05T10:24:13.796Z,10.15
2022-08-05T10:26:51.475Z,8.40
2022-08-05T10:29:24.122Z,6.78
2022-08-05T10:32:54.723Z,5.57
2022-08-05T10:35:01.105Z,4.57
2022-08-05T10:37:40.286Z,13.32
2022-08-05T10:40:35.084Z,6.57
2022-08-05T10:43:43.819Z,10.85
2022-08-05T10:46:13.453Z,5.95
2022-08-05T10:48:57.055Z,8.35
2022-08-05T10:51:28.790Z,6.78
2022-08-05T10:53:56.327Z,3.67
2022-08-05T10:56:28.317Z,6.38
2022-08-05T10:58:55.816Z,6.40
2022-08-05T11:01:54.527Z,6.90
2022-08-05T11:04:22.515Z,13.18
2022-08-05T11:07:04.591Z,12.15
2022-08-05T11:09:48.613Z,11.40
2022-08-05T11:12:24.629Z,11.90
2022-08-05T11:15:20.423Z,8.90
2022-08-05T11:17:57.195Z,9.80
2022-08-05T11:20:44.045Z,10.95
2022-08-05T11:23:33.712Z,4.72
2022-08-05T11:26:28.858Z,7.45
2022-08-05T11:29:11.383Z,7.13
2022-08-05T11:31:57.203Z,4.55
2022-08-05T11:34:51.765Z,3.67
2022-08-05T11:38:29.585Z,7.18
2022-08-05T11:41:34.775Z,7.63
2022-08-05T11:44:07.090Z,7.55
2022-08-05T11:46:58.241Z,7.95
2022-08-05T11:49:25.878Z,11.25
2022-08-05T11:51:57.585Z,9.80
2022-08-05T11:54:33.400Z,6.22
2022-08-05T11:57:08.162Z,8.25
2022-08-05T11:59:50.987Z,8.10
2022-08-05T12:02:29.714Z,5.32
2022-08-05T12:05:06.900Z,9.55
2022-08-05T12:08:03.360Z,11.68
2022-08-05T12:10:38.507Z,4.82
2022-08-05T12:13:17.078Z,7.95
2022-08-05T12:15:49.652Z,6.85
2022-08-05T12:18:32.839Z,10.32
2022-08-05T12:21:15.208Z,4.32
2022-08-05T12:23:57.567Z,7.93
2022-08-05T12:26:38.672Z,10.35
2022-08-05T12:29:09.364Z,10.60
2022-08-05T12:31:46.226Z,6.22
2022-08-05T12:34:23.731Z,8.50
2022-08-05T12:36:54.604Z,6.70
2022-08-05T12:39:27.805Z,7.97
2022-08-05T12:42:01.781Z,6.40
2022-08-05T12:44:33.915Z,7.15
2022-08-05T12:47:02.358Z,14.57
2022-08-05T12:50:04.529Z,10.00
2022-08-05T12:52:42.413Z,7.15
2022-08-05T12:55:23.645Z,4.72
2022-08-05T12:58:52.494Z,8.90
2022-08-05T13:02:03.552Z,6.43
2022-08-05T13:03:41.693Z,14.30
2022-08-05T13:06:16.959Z,8.63
2022-08-05T13:08:51.505Z,10.68
2022-08-05T13:12:01.078Z,11.30
2022-08-05T13:14:19.475Z,23.45
2022-08-05T13:16:47.768Z,12.30
2022-08-05T13:19:16.081Z,22.42
2022-08-05T13:21:47.955Z,16.73
2022-08-05T13:24:36.486Z,8.73
2022-08-05T13:27:11.135Z,17.88
2022-08-05T13:30:33.151Z,23.02
2022-08-05T13:32:34.029Z,29.70
2022-08-05T13:35:03.970Z,9.45
2022-08-05T13:37:34.731Z,37.40
2022-08-05T13:42:44.053Z,15.77
2022-08-05T13:45:12.119Z,19.50
2022-08-05T13:48:08.299Z,14.77
2022-08-05T13:50:26.611Z,19.02
2022-08-05T13:52:53.979Z,13.73
2022-08-05T13:55:41.070Z,6.95
2022-08-05T13:58:07.950Z,15.38
2022-08-05T14:00:37.949Z,19.67
2022-08-05T14:03:08.503Z,14.63
2022-08-05T14:06:24.780Z,13.65
2022-08-05T14:08:27.885Z,6.22
2022-08-05T14:11:03.070Z,8.80
2022-08-05T14:13:48.247Z,12.65
2022-08-05T14:16:17.098Z,18.75
2022-08-05T14:18:46.152Z,10.63
2022-08-05T14:22:08.460Z,15.38
2022-08-05T14:24:00.673Z,7.78
2022-08-05T14:26:38.858Z,13.23
2022-08-05T14:29:15.938Z,10.37
2022-08-05T14:32:02.830Z,15.80
2022-08-05T14:34:35.387Z,13.02
2022-08-05T14:37:04.405Z,12.63
2022-08-05T14:39:49.277Z,12.68
2022-08-05T14:42:19.296Z,7.25
2022-08-05T14:44:49.079Z,7.40
2022-08-05T14:47:16.021Z,10.40
2022-08-05T14:49:58.560Z,11.02
2022-08-05T14:52:51.608Z,13.02
2022-08-05T14:55:15.637Z,17.10
2022-08-05T14:57:54.870Z,8.70
2022-08-05T15:00:28.435Z,15.20
2022-08-05T15:02:56.918Z,12.48
2022-08-05T15:05:29.602Z,15.38
2022-08-05T15:08:11.327Z,7.60
2022-08-05T15:10:43.517Z,9.93
2022-08-05T15:13:13.157Z,9.68
2022-08-05T15:15:55.262Z,13.07
2022-08-05T15:18:23.621Z,9.30
2022-08-05T15:20:51.054Z,10.48
2022-08-05T15:23:18.263Z,9.40
2022-08-05T15:25:53.430Z,11.20
2022-08-05T15:28:27.651Z,12.52
2022-08-05T15:30:55.087Z,11.85
2022-08-05T15:34:04.175Z,13.13
2022-08-05T15:36:17.401Z,13.68
2022-08-05T15:40:41.275Z,14.45
2022-08-05T15:41:58.268Z,17.38
2022-08-05T15:44:26.015Z,14.80
2022-08-05T15:46:55.755Z,21.95
2022-08-05T15:49:41.865Z,20.90
2022-08-05T15:52:29.357Z,14.02
2022-08-05T15:54:56.752Z,11.73
2022-08-05T15:57:23.905Z,18.38
2022-08-05T15:59:56.721Z,19.35
2022-08-05T16:02:25.492Z,19.50
2022-08-05T16:04:53.122Z,8.82
2022-08-05T16:07:23.193Z,13.75
2022-08-05T16:09:51.039Z,10.18
2022-08-05T16:12:21.080Z,6.45
2022-08-05T16:14:48.354Z,5.75
2022-08-05T16:17:15.850Z,11.70
2022-08-05T16:20:03.158Z,11.55
2022-08-05T16:22:33.945Z,12.85
2022-08-05T16:27:59.644Z,10.60
2022-08-05T16:30:26.157Z,11.05
2022-08-05T16:32:54.639Z,21.02
2022-08-05T16:35:28.408Z,18.15
2022-08-05T16:38:03.420Z,20.45
2022-08-05T16:40:52.127Z,23.63
2022-08-05T16:43:25.956Z,16.90
2022-08-05T16:46:06.371Z,19.13
2022-08-05T16:48:40.071Z,11.32
2022-08-05T16:51:09.343Z,9.88
2022-08-05T16:54:04.019Z,12.07
2022-08-05T16:56:27.309Z,10.05
2022-08-05T16:58:54.197Z,13.35
2022-08-05T17:01:21.546Z,9.23
2022-08-05T17:03:52.022Z,9.60
2022-08-05T17:06:19.562Z,10.13
2022-08-05T17:08:52.800Z,11.68
2022-08-05T17:11:20.925Z,8.57
2022-08-05T17:13:51.286Z,10.75
2022-08-05T17:16:33.037Z,11.70
2022-08-05T17:19:01.519Z,8.88
2022-08-05T17:21:36.212Z,10.65
2022-08-05T17:24:18.520Z,12.20
2022-08-05T17:26:52.770Z,16.38
2022-08-05T17:29:22.348Z,10.85
2022-08-05T17:31:59.935Z,9.13
2022-08-05T17:34:30.274Z,11.45
2022-08-05T17:37:00.549Z,15.75
2022-08-05T17:39:33.199Z,7.85
2022-08-05T17:42:20.011Z,8.48
2022-08-05T17:44:51.057Z,11.70
2022-08-05T17:47:22.442Z,8.45
2022-08-05T17:50:00.002Z,10.77
2022-08-05T17:52:32.529Z,13.38
2022-08-05T17:55:00.394Z,19.55
2022-08-05T17:57:28.311Z,14.90
2022-08-05T18:00:05.295Z,11.10
2022-08-05T18:02:34.090Z,12.77
2022-08-05T18:05:03.701Z,16.60
2022-08-05T18:07:41.293Z,15.77
2022-08-05T18:10:20.449Z,16.23
2022-08-05T18:12:48.162Z,16.70
2022-08-05T18:15:15.145Z,16.95
2022-08-05T18:18:00.630Z,15.65
2022-08-05T18:20:32.033Z,19.92
2022-08-05T18:23:11.465Z,16.33
2022-08-05T18:25:44.919Z,18.08
2022-08-05T18:28:17.677Z,17.58
2022-08-05T18:30:51.296Z,14.70
2022-08-05T18:33:22.506Z,18.83
2022-08-05T18:36:04.241Z,19.17
2022-08-05T18:38:35.827Z,17.50
2022-08-05T18:41:56.221Z,16.75
2022-08-05T18:43:51.103Z,18.67
2022-08-05T18:46:19.569Z,16.50
2022-08-05T18:48:53.791Z,17.58
2022-08-05T18:52:06.809Z,17.77
2022-08-05T18:54:30.975Z,17.17
2022-08-05T18:56:59.876Z,16.80
2022-08-05T18:59:42.966Z,14.88
2022-08-05T19:02:27.916Z,17.02
2022-08-05T19:05:02.586Z,15.48
2022-08-05T19:07:48.069Z,14.95
2022-08-05T19:10:16.501Z,20.33
2022-08-05T19:12:46.169Z,20.17
2022-08-05T19:15:56.582Z,13.68
2022-08-05T19:18:09.334Z,23.00
2022-08-05T19:20:41.278Z,22.83
2022-08-05T19:23:22.714Z,26.52
2022-08-05T19:26:01.743Z,15.65
2022-08-05T19:28:31.148Z,19.60
2022-08-05T19:31:01.058Z,18.75
2022-08-05T19:33:35.245Z,16.13
2022-08-05T19:36:06.597Z,17.73
2022-08-05T19:38:37.258Z,23.77
2022-08-05T19:41:07.165Z,17.77
2022-08-05T19:44:05.995Z,20.85
2022-08-05T19:46:29.310Z,22.67
2022-08-05T19:49:02.834Z,18.00
2022-08-05T19:52:05.668Z,12.90
2022-08-05T19:54:26.714Z,17.67
2022-08-05T19:56:59.457Z,19.85
2022-08-05T20:00:00.465Z,20.55
2022-08-05T20:02:18.117Z,16.27
2022-08-05T20:04:48.255Z,21.25
2022-08-05T20:07:15.591Z,17.08
2022-08-05T20:10:04.949Z,18.90
2022-08-05T20:12:40.220Z,17.30
2022-08-05T20:15:48.058Z,14.35
2022-08-05T20:18:10.505Z,16.92
2022-08-05T20:20:56.809Z,16.70
2022-08-05T20:23:40.714Z,16.00
2022-08-05T20:26:16.203Z,15.43
2022-08-05T20:31:11.745Z,17.65
2022-08-05T20:33:38.626Z,13.70
2022-08-05T20:36:11.060Z,16.80
2022-08-05T20:38:40.890Z,15.80
2022-08-05T20:41:24.217Z,19.58
2022-08-05T20:43:58.634Z,20.92
2022-08-05T20:46:28.567Z,17.92
2022-08-05T20:48:55.481Z,17.95
2022-08-05T20:51:22.747Z,17.80
2022-08-05T20:53:55.252Z,16.63
2022-08-05T20:56:29.103Z,19.83
2022-08-05T20:59:04.247Z,13.95
2022-08-05T21:01:41.425Z,15.07
2022-08-05T21:04:10.522Z,17.23
2022-08-05T21:06:45.476Z,15.02
2022-08-05T21:09:14.243Z,17.92
2022-08-05T21:12:10.961Z,16.95
2022-08-05T21:14:31.449Z,20.95
2022-08-05T21:17:06.285Z,20.90
2022-08-05T21:19:46.610Z,16.88
2022-08-05T21:22:18.649Z,23.25
2022-08-05T21:24:51.863Z,25.33
2022-08-05T21:27:24.792Z,20.42
2022-08-05T21:29:57.659Z,20.73
2022-08-05T21:32:27.696Z,23.77
2022-08-05T21:35:16.888Z,25.02
2022-08-05T21:37:47.200Z,23.50
2022-08-05T21:40:14.598Z,19.27
2022-08-05T21:42:45.312Z,19.40
2022-08-05T21:45:24.175Z,18.48
2022-08-05T21:47:55.775Z,17.45
2022-08-05T21:50:24.810Z,19.02
2022-08-05T21:52:51.923Z,21.92
2022-08-05T21:56:00.793Z,19.30
2022-08-05T21:58:07.123Z,17.85
2022-08-05T22:00:37.595Z,18.17
2022-08-05T22:03:07.483Z,20.80
2022-08-05T22:05:48.770Z,25.23
2022-08-05T22:08:22.239Z,24.15
2022-08-05T22:10:51.627Z,22.27
2022-08-05T22:14:20.000Z,20.65
2022-08-05T22:16:32.189Z,19.02
2022-08-05T22:18:54.078Z,19.70
2022-08-05T22:21:25.750Z,19.95
2022-08-05T22:24:13.310Z,20.55
2022-08-05T22:27:17.679Z,18.10
2022-08-05T22:29:44.759Z,18.58
2022-08-05T22:32:12.954Z,19.48
2022-08-05T22:34:44.550Z,17.95
2022-08-05T22:37:12.801Z,18.58
2022-08-05T22:39:39.941Z,20.95
2022-08-05T22:42:12.166Z,19.42
2022-08-05T22:44:48.390Z,18.38
2022-08-05T22:47:29.751Z,16.05
2022-08-05T22:50:20.363Z,21.17
2022-08-05T22:52:48.804Z,16.58
2022-08-05T22:55:18.315Z,23.58
2022-08-05T23:00:17.971Z,14.45
2022-08-05T23:02:48.633Z,18.55
2022-08-05T23:05:15.956Z,19.75
2022-08-05T23:07:48.249Z,27.23
2022-08-05T23:10:19.696Z,18.88
2022-08-05T23:12:55.232Z,19.83
2022-08-05T23:15:30.017Z,19.92
2022-08-05T23:18:03.339Z,16.90
2022-08-05T23:20:37.280Z,15.85
2022-08-05T23:23:08.097Z,15.32
2022-08-05T23:25:54.723Z,16.25
2022-08-05T23:28:33.101Z,14.50
2022-08-05T23:31:15.756Z,15.80
2022-08-05T23:34:04.360Z,20.45
2022-08-05T23:36:40.085Z,16.08
2022-08-05T23:39:17.227Z,18.63
2022-08-05T23:41:51.509Z,26.10
2022-08-05T23:44:22.561Z,14.65
2022-08-05T23:46:52.077Z,17.55
2022-08-05T23:49:23.603Z,14.57
2022-08-05T23:52:11.191Z,17.13
2022-08-05T23:54:38.894Z,18.02
2022-08-05T23:57:07.344Z,13.60
2022-08-05T23:59:37.715Z,14.85
